Time;durP1;ratioP1;P1;durP2;ratioP2;P2;SDS_P1;SDS_P2;PMS_P1;PMS_P2;Temp;Humidity;BMP_temperature;BMP_pressure;BME280_temperature;BME280_humidity;BME280_pressure;Samples;Min_cycle;Max_cycle;Signal;HPM_P1;HPM_P2
2023/08/29 00:01:52;;;;;;;6.47;4.18;;;;;;;30.56;42.64;98858.19;4898413;29;20044;-74
2023/08/29 00:04:21;;;;;;;6.82;4.20;;;;;;;30.53;42.50;98869.72;4898095;29;20052;-74
2023/08/29 00:06:49;;;;;;;6.43;4.25;;;;;;;30.53;42.67;98875.22;4898217;29;20090;-75
2023/08/29 00:09:17;;;;;;;7.65;4.53;;;;;;;30.52;42.83;98876.31;4897874;29;20410;-74
2023/08/29 00:11:45;;;;;;;6.65;4.22;;;;;;;30.52;42.68;98868.06;4898255;29;20140;-74
2023/08/29 00:14:15;;;;;;;6.38;4.60;;;;;;;30.50;42.82;98870.22;4897444;29;20128;-74
2023/08/29 00:16:43;;;;;;;6.05;4.30;;;;;;;30.49;42.94;98866.63;4897840;29;20479;-74
2023/08/29 00:19:14;;;;;;;6.38;4.20;;;;;;;30.50;42.82;98881.25;4897946;29;20063;-74
2023/08/29 00:21:42;;;;;;;5.80;4.22;;;;;;;30.47;42.79;98882.56;4897862;29;20127;-74
2023/08/29 00:24:11;;;;;;;5.03;3.95;;;;;;;30.46;43.00;98882.81;4897806;29;20554;-72
2023/08/29 00:26:39;;;;;;;6.53;4.38;;;;;;;30.46;42.57;98871.81;4897851;29;20128;-74
2023/08/29 00:29:10;;;;;;;5.90;4.28;;;;;;;30.43;43.06;98864.91;4897796;29;20418;-74
2023/08/29 00:31:39;;;;;;;6.28;4.32;;;;;;;30.45;43.27;98870.16;4898130;29;20132;-74
2023/08/29 00:34:07;;;;;;;8.10;4.00;;;;;;;30.44;43.06;98901.50;4898254;29;20051;-74
2023/08/29 00:36:36;;;;;;;4.97;3.97;;;;;;;30.43;42.89;98908.91;4897772;29;20139;-74
2023/08/29 00:39:04;;;;;;;5.95;4.40;;;;;;;30.43;43.11;98916.34;4897740;29;20136;-73
2023/08/29 00:41:34;;;;;;;6.55;4.47;;;;;;;30.43;43.17;98905.34;4897769;29;20103;-74
2023/08/29 00:44:02;;;;;;;6.32;3.92;;;;;;;30.41;43.23;98905.59;4897537;29;20048;-74
2023/08/29 00:46:30;;;;;;;5.03;3.92;;;;;;;30.39;43.31;98901.41;4897651;29;20052;-74
2023/08/29 00:49:00;;;;;;;5.88;4.22;;;;;;;30.39;43.26;98901.41;4897616;29;20056;-76
2023/08/29 00:51:28;;;;;;;5.30;3.80;;;;;;;30.38;43.18;98899.75;4897770;29;20052;-74
2023/08/29 00:53:56;;;;;;;6.68;4.38;;;;;;;30.37;43.37;98909.09;4897665;29;20205;-74
2023/08/29 00:56:25;;;;;;;5.80;4.20;;;;;;;30.36;43.57;98918.44;4897262;29;20044;-74
2023/08/29 00:58:53;;;;;;;6.25;4.50;;;;;;;30.36;43.42;98929.44;4897374;29;20049;-73
2023/08/29 01:01:22;;;;;;;7.05;3.95;;;;;;;30.34;43.68;98931.63;4897132;29;20049;-74
2023/08/29 01:03:50;;;;;;;7.00;4.63;;;;;;;30.33;43.68;98921.69;4897190;29;20510;-73
2023/08/29 01:06:20;;;;;;;6.20;4.18;;;;;;;30.33;43.47;98935.44;4896955;29;20063;-74
2023/08/29 01:08:48;;;;;;;5.75;4.20;;;;;;;30.31;43.51;98946.72;4897020;29;20509;-74
2023/08/29 01:11:23;;;;;;;5.72;4.00;;;;;;;30.29;43.58;98957.09;4897074;29;20048;-74
2023/08/29 01:13:58;;;;;;;5.68;3.80;;;;;;;30.31;43.71;98976.13;4897318;29;20076;-74
2023/08/29 01:16:31;;;;;;;5.60;4.10;;;;;;;30.30;43.39;98968.94;4897056;29;20100;-74
2023/08/29 01:19:04;;;;;;;5.50;4.03;;;;;;;30.29;43.68;98950.78;4897118;29;20060;-74
2023/08/29 01:21:46;;;;;;;6.15;4.38;;;;;;;30.28;43.65;98938.13;4897121;29;20049;-74
2023/08/29 01:24:24;;;;;;;6.03;4.10;;;;;;;30.25;43.68;98949.63;4897135;29;20409;-74
2023/08/29 01:26:56;;;;;;;6.10;4.00;;;;;;;30.26;43.63;98965.03;4897134;29;20059;-74
2023/08/29 01:29:25;;;;;;;5.85;4.30;;;;;;;30.23;43.99;98960.88;4896637;29;20056;-73
2023/08/29 01:31:54;;;;;;;6.43;4.15;;;;;;;30.23;43.86;98954.56;4897048;29;20112;-74
2023/08/29 01:34:22;;;;;;;6.93;4.00;;;;;;;30.22;43.62;98941.88;4880233;29;20052;-74
2023/08/29 01:36:50;;;;;;;5.18;4.05;;;;;;;30.21;43.87;98932.81;4896822;29;20059;-74
2023/08/29 01:39:18;;;;;;;5.90;4.22;;;;;;;30.17;44.02;98921.47;4896598;29;20053;-74
2023/08/29 01:41:47;;;;;;;6.65;3.97;;;;;;;30.18;43.84;98928.63;4896781;29;20144;-74
2023/08/29 01:44:16;;;;;;;5.93;4.32;;;;;;;30.18;44.34;98928.63;4896719;29;20056;-74
2023/08/29 01:46:44;;;;;;;6.00;4.13;;;;;;;30.17;43.88;98924.22;4896617;29;20459;-74
2023/08/29 01:49:12;;;;;;;5.28;3.97;;;;;;;30.17;43.91;98909.63;4896492;29;20383;-74
2023/08/29 01:51:40;;;;;;;5.68;4.30;;;;;;;30.15;44.00;98901.63;4896752;29;20053;-73
2023/08/29 01:54:09;;;;;;;5.18;4.07;;;;;;;30.14;44.04;98891.72;4896650;29;20499;-74
2023/08/29 01:56:40;;;;;;;8.00;4.32;;;;;;;30.12;44.19;98895.81;4896612;29;20049;-74
2023/08/29 01:59:09;;;;;;;6.25;4.22;;;;;;;30.13;44.04;98898.31;4896486;29;20093;-74
2023/08/29 02:01:42;;;;;;;7.28;4.40;;;;;;;30.11;44.25;98895.00;4896838;29;20411;-73
2023/08/29 02:04:10;;;;;;;6.80;4.25;;;;;;;30.12;43.96;98882.91;4896139;29;20076;-74
2023/08/29 02:06:38;;;;;;;5.05;4.10;;;;;;;30.11;44.08;98886.75;4896667;29;20451;-74
2023/08/29 02:09:06;;;;;;;5.70;4.00;;;;;;;30.10;44.01;98882.28;4896307;29;20555;-75
2023/08/29 02:11:34;;;;;;;5.28;3.80;;;;;;;30.10;44.19;98886.97;4896387;29;20056;-74
2023/08/29 02:14:03;;;;;;;6.07;4.30;;;;;;;30.08;44.23;98887.22;4896289;29;20052;-74
2023/08/29 02:16:31;;;;;;;7.00;4.18;;;;;;;30.06;44.37;98892.13;4896526;29;20052;-74
2023/08/29 02:19:01;;;;;;;6.07;4.15;;;;;;;30.05;44.59;98879.47;4896453;29;20059;-74
2023/08/29 02:21:29;;;;;;;6.40;4.40;;;;;;;30.03;44.74;98865.13;4896512;29;20459;-74
2023/08/29 02:24:00;;;;;;;6.30;4.22;;;;;;;30.03;44.69;98872.56;4896545;29;20052;-74
2023/08/29 02:26:28;;;;;;;7.20;4.28;;;;;;;30.01;44.71;98905.75;4896232;29;20085;-74
2023/08/29 02:28:56;;;;;;;7.10;4.30;;;;;;;30.01;44.90;98943.41;4896104;29;20044;-74
2023/08/29 02:31:25;;;;;;;6.18;4.13;;;;;;;29.99;44.82;98916.19;4896044;29;20041;-74
2023/08/29 02:33:53;;;;;;;6.40;4.15;;;;;;;29.97;44.99;98893.63;4896501;29;20056;-74
2023/08/29 02:36:24;;;;;;;6.32;4.03;;;;;;;29.96;45.12;98896.63;4896456;29;20052;-74
2023/08/29 02:38:53;;;;;;;6.25;4.45;;;;;;;29.93;44.82;98870.47;4898478;29;20052;-74
2023/08/29 02:41:21;;;;;;;6.65;4.50;;;;;;;29.93;45.00;98865.81;4900077;29;20052;-74
2023/08/29 02:43:49;;;;;;;7.20;4.60;;;;;;;29.93;44.71;98867.72;4899916;29;20055;-74
2023/08/29 02:46:17;;;;;;;8.40;4.45;;;;;;;29.91;45.10;98870.69;4899744;29;20048;-74
2023/08/29 02:48:45;;;;;;;6.13;4.22;;;;;;;29.90;45.14;98838.81;4899722;29;20053;-75
2023/08/29 02:51:13;;;;;;;6.20;4.50;;;;;;;29.90;45.33;98837.97;4899656;29;20048;-74
2023/08/29 02:53:43;;;;;;;6.30;4.50;;;;;;;29.88;45.17;98834.66;4899541;29;20072;-74
2023/08/29 02:56:11;;;;;;;8.27;4.63;;;;;;;29.88;45.38;98851.16;4899586;29;20048;-74
2023/08/29 02:58:39;;;;;;;6.45;4.70;;;;;;;29.86;45.43;98848.66;4899628;29;20057;-74
2023/08/29 03:01:11;;;;;;;5.50;4.38;;;;;;;29.85;45.34;98848.91;4899526;29;20053;-74
2023/08/29 03:03:39;;;;;;;6.90;4.53;;;;;;;29.85;45.60;98862.66;4900159;29;20468;-74
2023/08/29 03:06:08;;;;;;;6.53;4.47;;;;;;;29.82;45.28;98869.50;4899043;29;20511;-75
2023/08/29 03:08:36;;;;;;;6.70;4.68;;;;;;;29.83;45.34;98854.66;4899421;29;20045;-74
2023/08/29 03:11:08;;;;;;;6.07;4.35;;;;;;;29.83;45.59;98853.84;4899286;29;20052;-74
2023/08/29 03:13:36;;;;;;;;;;;;;;;29.82;45.77;98857.63;4899787;29;20059;-75
2023/08/29 03:16:11;;;;;;;6.80;4.38;;;;;;;29.80;45.42;98865.31;4899336;29;19923;-75
2023/08/29 03:18:40;;;;;;;6.60;4.82;;;;;;;29.80;45.47;98857.06;4899163;29;20049;-75
2023/08/29 03:21:08;;;;;;;6.18;4.32;;;;;;;29.79;45.57;98864.47;4899366;29;20074;-74
2023/08/29 03:23:37;;;;;;;6.30;4.53;;;;;;;29.78;45.70;98867.47;4882914;29;20052;-75
2023/08/29 03:26:06;;;;;;;6.20;4.40;;;;;;;29.77;46.01;98871.31;4899320;29;20060;-75
2023/08/29 03:28:39;;;;;;;7.03;4.55;;;;;;;29.76;45.72;98869.66;4899028;29;20051;-74
2023/08/29 03:31:11;;;;;;;7.15;4.30;;;;;;;29.75;45.63;98870.72;4898926;29;20049;-75
2023/08/29 03:33:40;;;;;;;7.60;4.45;;;;;;;29.75;46.06;98862.50;4899096;29;20051;-75
2023/08/29 03:36:08;;;;;;;7.50;4.95;;;;;;;29.75;46.03;98862.50;4898950;29;20056;-75
2023/08/29 03:38:39;;;;;;;7.25;5.32;;;;;;;29.72;45.93;98862.97;4899026;29;20045;-76
2023/08/29 03:41:07;;;;;;;9.38;4.97;;;;;;;29.72;45.98;98857.47;4898900;29;20048;-74
2023/08/29 03:43:37;;;;;;;7.65;4.50;;;;;;;29.71;45.76;98862.13;4898578;29;20554;-74
2023/08/29 03:46:08;;;;;;;6.05;4.80;;;;;;;29.67;45.97;98852.75;4898951;29;20060;-75
2023/08/29 03:48:37;;;;;;;6.07;5.10;;;;;;;29.68;46.22;98850.81;4898896;29;20048;-75
2023/08/29 03:51:06;;;;;;;6.53;4.90;;;;;;;29.68;46.07;98848.06;4898138;29;20052;-74
2023/08/29 03:53:36;;;;;;;8.05;4.70;;;;;;;29.66;46.11;98842.84;4898584;29;20107;-74
2023/08/29 03:56:08;;;;;;;;;;;;;;;29.64;46.54;98840.34;4899722;29;20109;-75
2023/08/29 03:58:36;;;;;;;6.47;4.82;;;;;;;29.62;46.55;98830.66;4899173;29;20345;-75
2023/08/29 04:01:06;;;;;;;6.50;4.93;;;;;;;29.59;46.43;98820.19;4899257;29;20505;-75
2023/08/29 04:03:34;;;;;;;9.32;4.80;;;;;;;29.59;46.26;98829.25;4898537;29;20108;-75
2023/08/29 04:06:03;;;;;;;7.30;4.95;;;;;;;29.59;46.53;98828.44;4897925;29;20064;-75
2023/08/29 04:08:31;;;;;;;6.47;4.47;;;;;;;29.59;46.17;98837.50;4898300;29;20088;-75
2023/08/29 04:11:00;;;;;;;6.68;4.85;;;;;;;29.57;46.09;98828.69;4898144;29;20095;-75
2023/08/29 04:13:28;;;;;;;7.25;4.80;;;;;;;29.56;46.16;98835.25;4898470;29;20044;-74
2023/08/29 04:16:01;;;;;;;6.15;4.65;;;;;;;29.57;46.50;98836.09;4881719;29;20087;-75
2023/08/29 04:18:30;;;;;;;7.15;4.82;;;;;;;29.54;46.38;98848.44;4898173;29;20463;-74
2023/08/29 04:20:59;;;;;;;7.13;4.43;;;;;;;29.56;46.35;98848.16;4898354;29;20059;-74
2023/08/29 04:23:27;;;;;;;7.57;4.88;;;;;;;29.54;46.43;98851.16;4898246;29;20052;-75
2023/08/29 04:26:00;;;;;;;6.05;4.47;;;;;;;29.53;46.21;98871.47;4898114;29;20440;-75
2023/08/29 04:28:29;;;;;;;8.50;4.88;;;;;;;29.53;46.35;98882.47;4898068;29;20113;-75
2023/08/29 04:31:07;;;;;;;7.72;4.57;;;;;;;29.52;46.47;98889.03;4897873;29;20048;-74
2023/08/29 04:33:37;;;;;;;6.97;4.10;;;;;;;29.52;46.51;98879.94;4897785;29;20550;-75
2023/08/29 04:36:05;;;;;;;6.93;4.70;;;;;;;29.52;46.41;98879.94;4897574;29;20051;-74
2023/08/29 04:38:34;;;;;;;8.10;4.55;;;;;;;29.51;46.32;98875.53;4897862;29;20044;-75
2023/08/29 04:41:03;;;;;;;7.38;4.57;;;;;;;29.50;46.41;98877.44;4897670;29;20053;-74
2023/08/29 04:43:31;;;;;;;6.35;4.70;;;;;;;29.49;46.51;98881.28;4897460;29;20509;-75
2023/08/29 04:46:00;;;;;;;8.50;4.93;;;;;;;29.49;46.24;98881.28;4897732;29;20053;-74
2023/08/29 04:48:28;;;;;;;8.55;4.60;;;;;;;29.49;46.59;98897.75;4897442;29;20052;-75
2023/08/29 04:50:58;;;;;;;7.75;4.72;;;;;;;29.48;46.56;98896.09;4897235;29;20128;-74
2023/08/29 04:53:26;;;;;;;6.57;4.55;;;;;;;29.46;46.40;98886.41;4897305;29;20059;-75
2023/08/29 04:55:59;;;;;;;6.53;4.63;;;;;;;29.48;46.72;98884.25;4897434;29;20045;-74
2023/08/29 04:58:27;;;;;;;6.85;4.88;;;;;;;29.40;46.83;98882.75;4897476;29;20079;-74
2023/08/29 05:00:56;;;;;;;6.78;4.60;;;;;;;29.46;46.83;98905.66;4896832;29;20087;-75
2023/08/29 05:03:24;;;;;;;7.40;4.75;;;;;;;29.45;46.65;98907.56;4897599;29;20053;-75
2023/08/29 05:05:52;;;;;;;7.57;4.55;;;;;;;29.45;46.93;98912.22;4897260;29;20061;-75
2023/08/29 05:08:22;;;;;;;6.30;4.50;;;;;;;29.43;46.48;98893.22;4897503;29;20132;-75
2023/08/29 05:10:50;;;;;;;6.65;4.68;;;;;;;29.43;46.54;98893.22;4897469;29;20140;-75
2023/08/29 05:13:21;;;;;;;6.78;4.72;;;;;;;29.43;46.81;98895.13;4897257;29;20045;-74
2023/08/29 05:15:49;;;;;;;6.57;4.70;;;;;;;29.43;46.83;98915.19;4897344;29;20045;-76
2023/08/29 05:18:17;;;;;;;7.13;4.72;;;;;;;29.42;46.62;98918.19;4898256;29;20105;-75
2023/08/29 05:20:45;;;;;;;7.50;4.50;;;;;;;29.41;46.65;98917.34;4903134;29;20045;-76
2023/08/29 05:23:13;;;;;;;7.60;4.70;;;;;;;29.41;46.83;98922.84;4901082;29;20049;-75
2023/08/29 05:25:43;;;;;;;7.35;4.80;;;;;;;29.41;46.69;98917.34;4886562;29;20048;-76
2023/08/29 05:28:11;;;;;;;9.38;4.90;;;;;;;29.40;47.00;98921.19;4901140;29;20059;-75
2023/08/29 05:30:39;;;;;;;6.60;4.60;;;;;;;29.40;47.12;98932.16;4896931;29;20088;-75
2023/08/29 05:33:07;;;;;;;7.00;5.10;;;;;;;29.40;46.83;98925.84;4896589;29;20109;-75
2023/08/29 05:35:36;;;;;;;6.30;4.45;;;;;;;29.39;47.20;98925.03;4896855;29;20108;-75
2023/08/29 05:38:04;;;;;;;6.72;4.75;;;;;;;29.38;47.03;98917.88;4896812;29;20096;-75
2023/08/29 05:40:33;;;;;;;7.13;4.57;;;;;;;29.38;47.15;98926.09;4897000;29;20053;-75
2023/08/29 05:43:03;;;;;;;8.10;4.68;;;;;;;29.37;47.36;98916.19;4896299;29;20048;-75
2023/08/29 05:45:31;;;;;;;6.68;4.65;;;;;;;29.38;47.05;98915.13;4896053;29;20558;-75
2023/08/29 05:48:03;;;;;;;7.32;4.38;;;;;;;29.36;47.35;98909.88;4896269;29;20052;-74
2023/08/29 05:50:35;;;;;;;8.68;4.45;;;;;;;29.38;46.89;98915.13;4896350;29;20044;-74
2023/08/29 05:53:03;;;;;;;6.85;4.55;;;;;;;29.37;47.17;98910.72;4896494;29;20048;-75
2023/08/29 05:55:31;;;;;;;7.47;4.90;;;;;;;29.38;47.29;98904.13;4896666;29;20052;-74
2023/08/29 05:58:00;;;;;;;6.38;5.00;;;;;;;29.38;47.22;98900.56;4896863;29;20044;-76
2023/08/29 06:00:30;;;;;;;6.43;4.40;;;;;;;29.38;47.46;98903.31;4896622;29;20107;-77
2023/08/29 06:03:00;;;;;;;7.30;4.70;;;;;;;29.36;47.42;98898.06;4880371;29;20578;-77
2023/08/29 06:05:28;;;;;;;6.50;4.40;;;;;;;29.36;47.22;98892.56;4897959;29;20120;-77
2023/08/29 06:07:57;;;;;;;8.13;4.90;;;;;;;29.35;47.30;98889.00;4896753;29;20108;-79
2023/08/29 06:10:44;;;;;;;6.65;4.40;;;;;;;29.35;47.16;98893.66;4895617;29;20487;-75
2023/08/29 06:13:12;;;;;;;9.07;4.90;;;;;;;29.34;47.60;98892.81;4894418;29;20051;-75
2023/08/29 06:15:42;;;;;;;5.85;4.45;;;;;;;29.34;47.34;98894.72;4900089;29;20057;-75
2023/08/29 06:18:10;;;;;;;8.48;4.97;;;;;;;29.33;47.36;98904.84;4900436;29;20059;-74
2023/08/29 06:20:38;;;;;;;8.68;5.05;;;;;;;29.33;47.48;98910.34;4900154;29;20056;-74
2023/08/29 06:23:06;;;;;;;6.68;4.45;;;;;;;29.31;47.41;98906.19;4900092;29;20079;-76
2023/08/29 06:25:35;;;;;;;7.75;4.32;;;;;;;29.33;47.30;98904.03;4900775;29;20067;-76
2023/08/29 06:28:04;;;;;;;6.72;4.93;;;;;;;29.31;47.45;98887.78;4900266;29;20047;-75
2023/08/29 06:30:32;;;;;;;7.65;4.80;;;;;;;29.31;47.41;98903.44;4900221;29;20084;-76
2023/08/29 06:33:06;;;;;;;7.63;4.72;;;;;;;29.33;47.35;98898.53;4900254;29;20049;-76
2023/08/29 06:35:38;;;;;;;9.45;5.18;;;;;;;29.31;47.72;98917.16;4900079;29;20056;-75
2023/08/29 06:38:07;;;;;;;6.75;4.80;;;;;;;29.32;47.90;98918.84;4899878;29;20051;-76
2023/08/29 06:40:36;;;;;;;8.18;4.72;;;;;;;29.31;47.72;98922.66;4900106;29;20056;-75
2023/08/29 06:43:05;;;;;;;6.97;4.35;;;;;;;29.28;47.77;98920.41;4898628;29;20060;-76
2023/08/29 06:45:33;;;;;;;6.28;4.80;;;;;;;29.30;47.65;98899.88;4899816;29;20455;-75
2023/08/29 06:48:03;;;;;;;6.43;4.57;;;;;;;29.29;47.33;98895.44;4898615;29;20049;-75
2023/08/29 06:50:31;;;;;;;6.47;4.72;;;;;;;29.29;47.34;98908.34;4899913;29;20061;-75
2023/08/29 06:53:02;;;;;;;8.48;4.88;;;;;;;29.26;47.44;98931.66;4899833;29;20135;-76
2023/08/29 06:55:31;;;;;;;8.38;4.80;;;;;;;29.29;47.45;98963.28;4899842;29;20053;-75
2023/08/29 06:58:00;;;;;;;6.32;4.72;;;;;;;29.28;47.63;98984.41;4899547;29;20048;-75
2023/08/29 07:00:28;;;;;;;6.90;4.90;;;;;;;29.29;47.49;99001.72;4899767;29;20469;-75
2023/08/29 07:02:56;;;;;;;7.18;4.47;;;;;;;29.28;47.34;99024.75;4899352;29;20048;-75
2023/08/29 07:05:26;;;;;;;6.72;4.60;;;;;;;29.27;47.55;99059.63;4899312;29;20052;-76
2023/08/29 07:07:55;;;;;;;8.10;4.53;;;;;;;29.27;47.59;99081.59;4900237;29;20059;-75
2023/08/29 07:10:23;;;;;;;6.03;4.45;;;;;;;29.28;47.60;99072.28;4900144;29;20070;-76
2023/08/29 07:12:51;;;;;;;6.32;4.57;;;;;;;29.27;47.79;99070.63;4899775;29;20052;-75
2023/08/29 07:15:20;;;;;;;7.15;4.43;;;;;;;29.26;47.60;99055.22;4899479;29;20085;-76
2023/08/29 07:17:48;;;;;;;6.90;4.50;;;;;;;29.25;47.80;99053.56;4899527;29;20056;-75
2023/08/29 07:20:16;;;;;;;8.13;4.40;;;;;;;29.27;47.67;99050.56;4899533;29;20091;-76
2023/08/29 07:22:45;;;;;;;7.38;4.30;;;;;;;29.27;47.80;99031.34;4899657;29;20083;-76
2023/08/29 07:25:14;;;;;;;6.10;4.47;;;;;;;29.25;47.98;99036.25;4899560;29;20391;-77
2023/08/29 07:27:43;;;;;;;7.90;4.70;;;;;;;29.25;47.99;99033.50;4899895;29;20096;-77
2023/08/29 07:30:14;;;;;;;7.53;4.60;;;;;;;29.23;47.88;99024.66;4899382;29;20056;-79
2023/08/29 07:32:44;;;;;;;7.43;4.63;;;;;;;29.22;47.95;99014.75;4899996;29;20055;-78
2023/08/29 07:35:13;;;;;;;6.22;4.15;;;;;;;29.21;47.61;99024.06;4900181;29;20455;-78
2023/08/29 07:37:42;;;;;;;6.78;4.63;;;;;;;29.21;47.87;99010.34;4899650;29;20059;-80
2023/08/29 07:40:12;;;;;;;5.75;4.50;;;;;;;29.22;47.79;99006.50;4899562;29;20465;-78
2023/08/29 07:42:40;;;;;;;6.20;4.25;;;;;;;29.20;47.92;98987.53;4899274;29;20063;-79
2023/08/29 07:45:09;;;;;;;6.70;4.30;;;;;;;29.19;47.95;98979.53;4899286;29;20076;-78
2023/08/29 07:47:37;;;;;;;7.20;4.30;;;;;;;29.19;47.91;98985.03;4899640;29;20059;-78
2023/08/29 07:50:09;;;;;;;8.38;4.38;;;;;;;29.18;48.06;99000.69;4899569;29;20056;-77
2023/08/29 07:52:37;;;;;;;7.20;4.55;;;;;;;29.18;48.03;98994.34;4899156;29;20059;-77
2023/08/29 07:55:10;;;;;;;5.97;4.15;;;;;;;29.18;47.94;98988.88;4898985;29;20055;-78
2023/08/29 07:57:39;;;;;;;6.32;4.28;;;;;;;29.17;47.96;98987.19;4899125;29;20091;-78
2023/08/29 08:00:11;;;;;;;7.90;4.68;;;;;;;29.15;48.25;98989.38;4899263;29;20048;-78
2023/08/29 08:02:40;;;;;;;6.13;4.40;;;;;;;29.16;48.17;99019.31;4898981;29;20234;-78
2023/08/29 08:05:10;;;;;;;6.80;4.38;;;;;;;29.16;48.05;99018.47;4898728;29;20053;-78
2023/08/29 08:07:38;;;;;;;7.00;4.47;;;;;;;29.15;48.30;99031.38;4899074;29;20123;-78
2023/08/29 08:10:07;;;;;;;6.25;4.47;;;;;;;29.14;48.03;99045.31;4898715;29;20056;-78
2023/08/29 08:12:38;;;;;;;6.28;4.18;;;;;;;29.15;48.18;99033.28;4898646;29;20056;-78
2023/08/29 08:15:08;;;;;;;6.63;4.40;;;;;;;29.14;47.78;99026.94;4898808;29;20136;-77
2023/08/29 08:17:37;;;;;;;7.47;4.65;;;;;;;29.13;48.18;99010.72;4898701;29;20495;-78
2023/08/29 08:20:08;;;;;;;7.03;4.07;;;;;;;29.12;48.21;99018.09;4898433;29;20048;-78
2023/08/29 08:22:36;;;;;;;7.15;4.68;;;;;;;29.12;48.15;99025.50;4898294;29;20139;-78
2023/08/29 08:25:05;;;;;;;5.72;4.13;;;;;;;29.11;48.50;99037.56;4898711;29;20471;-78
2023/08/29 08:27:34;;;;;;;7.28;4.32;;;;;;;29.11;48.47;99057.63;4898403;29;20059;-76
2023/08/29 08:30:07;;;;;;;7.35;4.45;;;;;;;29.11;48.06;99073.25;4898602;29;20085;-77
2023/08/29 08:32:36;;;;;;;8.00;4.25;;;;;;;29.09;48.08;99095.47;4898155;29;20060;-78
2023/08/29 08:35:06;;;;;;;6.25;4.28;;;;;;;29.08;48.52;99111.13;4897722;29;20045;-77
2023/08/29 08:37:36;;;;;;;7.65;5.00;;;;;;;29.07;48.16;99120.44;4898103;29;20049;-77
2023/08/29 08:40:09;;;;;;;6.22;4.25;;;;;;;29.07;48.24;99119.59;4897021;29;20498;-78
2023/08/29 08:42:40;;;;;;;7.78;4.43;;;;;;;29.06;48.50;99117.94;4898121;29;20498;-76
2023/08/29 08:45:10;;;;;;;7.05;4.43;;;;;;;29.06;48.27;99143.47;4897914;29;20049;-75
2023/08/29 08:47:39;;;;;;;6.30;4.03;;;;;;;28.96;48.73;99145.97;4897914;29;20057;-77
2023/08/29 08:50:09;;;;;;;6.70;4.47;;;;;;;29.04;48.74;99159.31;4898122;29;20052;-77
2023/08/29 08:52:40;;;;;;;6.68;4.50;;;;;;;29.04;48.38;99148.34;4897844;29;20052;-77
2023/08/29 08:55:09;;;;;;;6.18;4.20;;;;;;;29.01;48.83;99126.84;4897825;29;20059;-77
2023/08/29 08:57:37;;;;;;;7.00;4.50;;;;;;;29.02;48.70;99134.03;4897386;29;20173;-76
2023/08/29 09:00:07;;;;;;;6.65;4.70;;;;;;;29.00;48.59;99138.91;4897230;29;20052;-76
2023/08/29 09:02:42;;;;;;;7.47;4.50;;;;;;;29.00;48.62;99138.91;4897353;29;20546;-76
2023/08/29 09:05:10;;;;;;;7.18;4.60;;;;;;;29.01;48.75;99142.50;4897357;29;20143;-77
2023/08/29 09:07:39;;;;;;;6.85;4.40;;;;;;;29.01;48.71;99132.34;4897574;29;20044;-76
2023/08/29 09:10:10;;;;;;;6.75;4.18;;;;;;;28.99;49.08;99134.50;4897595;29;20059;-78
2023/08/29 09:12:47;;;;;;;7.72;4.50;;;;;;;28.99;48.55;99103.47;4897335;29;20048;-78
2023/08/29 09:15:17;;;;;;;6.40;4.20;;;;;;;28.98;48.66;99094.41;4897200;29;20490;-78
2023/08/29 09:17:48;;;;;;;9.20;4.45;;;;;;;28.97;49.07;99089.16;4897687;29;20128;-78
2023/08/29 09:20:17;;;;;;;6.95;4.45;;;;;;;28.96;49.20;99091.06;4897517;29;20080;-79
2023/08/29 09:22:46;;;;;;;6.38;4.38;;;;;;;28.95;49.08;99083.91;4897266;29;20116;-79
2023/08/29 09:25:15;;;;;;;8.20;4.38;;;;;;;28.98;49.13;99085.34;4897194;29;20052;-80
2023/08/29 09:27:45;;;;;;;7.18;4.28;;;;;;;28.95;48.93;99070.19;4897503;29;20056;-79
2023/08/29 09:30:15;;;;;;;7.05;4.28;;;;;;;28.95;49.06;99056.47;4897304;29;20116;-80
2023/08/29 09:32:47;;;;;;;6.50;4.50;;;;;;;28.94;49.18;99032.00;4897106;29;20053;-80
2023/08/29 09:35:19;;;;;;;8.10;4.22;;;;;;;28.92;48.84;99013.03;4897214;29;20053;-80
2023/08/29 09:37:52;;;;;;;6.93;4.30;;;;;;;28.92;48.96;99012.19;4896994;29;20059;-80
2023/08/29 09:40:21;;;;;;;6.00;4.22;;;;;;;28.91;49.27;99005.88;4897408;29;20053;-80
2023/08/29 09:42:53;;;;;;;5.30;3.92;;;;;;;28.90;49.04;99014.34;4897156;29;20453;-80
2023/08/29 09:45:22;;;;;;;6.28;4.35;;;;;;;28.90;48.92;99003.38;4897026;29;20104;-79
2023/08/29 09:47:53;;;;;;;6.05;4.15;;;;;;;28.91;49.17;98997.63;4896984;29;20066;-80
2023/08/29 09:50:22;;;;;;;7.38;4.80;;;;;;;28.91;49.21;98996.81;4896872;29;20052;-79
2023/08/29 09:52:53;;;;;;;7.07;4.32;;;;;;;28.90;48.94;99006.13;4897030;29;20057;-79
2023/08/29 09:55:23;;;;;;;7.53;4.72;;;;;;;28.89;49.01;99008.03;4897338;29;20158;-79
2023/08/29 09:57:53;;;;;;;7.57;4.13;;;;;;;28.90;49.39;99001.47;4897296;29;20143;-78
2023/08/29 10:00:22;;;;;;;6.53;4.38;;;;;;;28.90;49.24;99001.47;4897252;29;20131;-79
2023/08/29 10:02:55;;;;;;;6.07;4.22;;;;;;;28.89;49.05;98993.47;4897056;29;20052;-78
2023/08/29 10:05:27;;;;;;;6.13;3.97;;;;;;;28.88;49.21;98987.13;4896830;29;20488;-79
2023/08/29 10:08:14;;;;;;;6.78;4.10;;;;;;;28.88;49.32;98983.53;4897138;29;20044;-79
2023/08/29 10:10:43;;;;;;;5.75;4.43;;;;;;;28.86;49.16;98997.50;4897009;29;20048;-78
2023/08/29 10:13:12;;;;;;;6.68;4.53;;;;;;;28.87;49.44;98999.16;4896535;29;20140;-79
2023/08/29 10:15:42;;;;;;;6.18;3.97;;;;;;;28.86;49.16;99004.91;4897563;29;20135;-79
2023/08/29 10:18:12;;;;;;;6.50;4.15;;;;;;;28.85;49.32;99006.78;4897428;29;20060;-79
2023/08/29 10:20:44;;;;;;;7.45;4.45;;;;;;;28.86;49.17;99005.75;4897126;29;20060;-78
2023/08/29 10:23:13;;;;;;;7.30;4.38;;;;;;;28.84;49.51;99015.25;4896725;29;20096;-78
2023/08/29 10:25:43;;;;;;;6.43;4.40;;;;;;;28.85;49.52;99028.75;4896806;29;20558;-79
2023/08/29 10:28:14;;;;;;;6.35;4.10;;;;;;;28.85;49.68;99045.19;4897082;29;20498;-79
2023/08/29 10:30:47;;;;;;;6.53;4.38;;;;;;;28.84;49.14;99050.94;4896950;29;20045;-79
2023/08/29 10:33:15;;;;;;;5.68;4.03;;;;;;;28.83;49.34;99052.00;4896814;29;20139;-78
2023/08/29 10:35:48;;;;;;;6.82;4.40;;;;;;;28.83;49.42;99058.34;4896657;29;20088;-81
2023/08/29 10:38:18;;;;;;;8.00;4.82;;;;;;;28.84;49.64;99054.50;4896960;29;20057;-80
2023/08/29 10:40:47;;;;;;;5.68;3.90;;;;;;;28.85;49.44;99045.19;4896946;29;20486;-81
2023/08/29 10:43:19;;;;;;;6.43;3.72;;;;;;;28.85;49.32;99017.75;4897243;29;20139;-81
2023/08/29 10:45:49;;;;;;;5.55;4.00;;;;;;;28.84;49.40;99018.84;4896665;29;20056;-80
2023/08/29 10:48:19;;;;;;;6.10;4.40;;;;;;;28.86;49.25;99011.22;4896590;29;20052;-79
2023/08/29 10:50:49;;;;;;;5.50;3.92;;;;;;;28.88;49.62;99005.50;4896567;29;20056;-81
2023/08/29 10:53:19;;;;;;;5.93;4.25;;;;;;;28.89;49.66;98994.31;4896604;29;20104;-80
2023/08/29 10:56:03;;;;;;;6.43;4.20;;;;;;;28.90;49.21;99001.47;4896980;29;20108;-79
2023/08/29 10:58:35;;;;;;;6.78;4.22;;;;;;;28.92;49.28;98996.56;4895414;29;20055;-80
2023/08/29 11:01:08;;;;;;;6.03;4.10;;;;;;;28.95;49.24;99007.06;4899986;29;20442;-80
2023/08/29 11:03:48;;;;;;;6.57;4.22;;;;;;;28.98;49.54;98992.84;4899592;29;20088;-80
2023/08/29 11:06:18;;;;;;;6.63;4.13;;;;;;;29.02;49.67;98985.78;4900076;29;20056;-79
2023/08/29 11:08:47;;;;;;;6.28;3.75;;;;;;;29.04;49.09;98972.66;4900073;29;20147;-79
2023/08/29 11:11:20;;;;;;;5.82;4.13;;;;;;;29.06;49.20;98964.19;4899889;29;20598;-79
2023/08/29 11:13:59;;;;;;;5.80;4.15;;;;;;;29.07;49.30;98961.22;4899558;29;20063;-79
2023/08/29 11:16:28;;;;;;;5.80;4.10;;;;;;;29.10;49.47;98948.06;4899822;29;20060;-81
2023/08/29 11:19:07;;;;;;;6.32;4.15;;;;;;;29.12;49.37;98929.44;4899924;29;20044;-80
2023/08/29 11:21:36;;;;;;;6.20;4.40;;;;;;;29.13;49.46;98917.38;4899709;29;20410;-80
2023/08/29 11:24:06;;;;;;;6.43;4.20;;;;;;;29.14;49.21;98910.78;4899952;29;20048;-79
2023/08/29 11:26:39;;;;;;;6.10;3.90;;;;;;;29.16;49.44;98916.91;4899530;29;20576;-78
2023/08/29 11:29:08;;;;;;;5.45;4.28;;;;;;;29.17;49.58;98919.41;4899418;29;20052;-81
2023/08/29 11:31:40;;;;;;;5.35;3.90;;;;;;;29.19;49.45;98924.63;4899400;29;20048;-81
2023/08/29 11:34:17;;;;;;;6.50;4.30;;;;;;;29.21;49.70;98930.72;4899525;29;20392;-79
2023/08/29 11:36:50;;;;;;;5.80;4.18;;;;;;;29.23;49.46;98926.63;4899131;29;20048;-79
2023/08/29 11:39:21;;;;;;;6.38;4.68;;;;;;;29.25;49.58;98920.91;4898933;29;20067;-80
2023/08/29 11:41:49;;;;;;;4.78;3.80;;;;;;;29.28;49.37;98918.50;4899036;29;20056;-78
2023/08/29 11:44:38;;;;;;;6.00;3.88;;;;;;;29.32;49.64;98918.84;4899593;29;20123;-79
2023/08/29 11:47:26;;;;;;;5.22;3.88;;;;;;;29.33;49.54;98909.50;4898874;29;20116;-79